sensor_id;sensor_type;location;lat;lon;timestamp;P1;durP1;ratioP1;P2;durP2;ratioP2
22812;SDS011;11573;51.334;3.244;2023-10-08T00:01:09;13.65;;;5.57;;
22812;SDS011;11573;51.334;3.244;2023-10-08T00:03:41;24.20;;;6.00;;
22812;SDS011;11573;51.334;3.244;2023-10-08T00:08:48;16.58;;;5.43;;
22812;SDS011;11573;51.334;3.244;2023-10-08T00:11:16;22.92;;;6.18;;
22812;SDS011;11573;51.334;3.244;2023-10-08T00:13:44;20.08;;;5.90;;
22812;SDS011;11573;51.334;3.244;2023-10-08T00:16:11;23.23;;;6.47;;
22812;SDS011;11573;51.334;3.244;2023-10-08T00:18:44;28.05;;;7.00;;
22812;SDS011;11573;51.334;3.244;2023-10-08T00:21:19;25.52;;;6.80;;
22812;SDS011;11573;51.334;3.244;2023-10-08T00:23:54;24.63;;;5.95;;
22812;SDS011;11573;51.334;3.244;2023-10-08T00:26:25;22.52;;;5.68;;
22812;SDS011;11573;51.334;3.244;2023-10-08T00:29:02;21.52;;;6.57;;
22812;SDS011;11573;51.334;3.244;2023-10-08T00:31:34;32.35;;;7.20;;
22812;SDS011;11573;51.334;3.244;2023-10-08T00:34:07;28.15;;;7.70;;
22812;SDS011;11573;51.334;3.244;2023-10-08T00:36:42;30.80;;;7.07;;
22812;SDS011;11573;51.334;3.244;2023-10-08T00:39:10;25.35;;;7.15;;
22812;SDS011;11573;51.334;3.244;2023-10-08T00:41:43;23.02;;;6.38;;
22812;SDS011;11573;51.334;3.244;2023-10-08T00:44:12;25.15;;;6.95;;
22812;SDS011;11573;51.334;3.244;2023-10-08T00:46:42;24.63;;;6.40;;
22812;SDS011;11573;51.334;3.244;2023-10-08T00:49:19;23.25;;;6.15;;
22812;SDS011;11573;51.334;3.244;2023-10-08T00:51:49;32.53;;;7.28;;
22812;SDS011;11573;51.334;3.244;2023-10-08T00:54:46;28.30;;;7.28;;
22812;SDS011;11573;51.334;3.244;2023-10-08T00:57:31;31.25;;;7.85;;
22812;SDS011;11573;51.334;3.244;2023-10-08T01:00:03;29.13;;;6.93;;
22812;SDS011;11573;51.334;3.244;2023-10-08T01:02:33;27.42;;;7.55;;
22812;SDS011;11573;51.334;3.244;2023-10-08T01:05:13;24.10;;;6.25;;
22812;SDS011;11573;51.334;3.244;2023-10-08T01:08:05;36.33;;;6.75;;
22812;SDS011;11573;51.334;3.244;2023-10-08T01:10:33;32.33;;;6.65;;
22812;SDS011;11573;51.334;3.244;2023-10-08T01:13:01;32.83;;;6.43;;
22812;SDS011;11573;51.334;3.244;2023-10-08T01:15:33;23.25;;;7.28;;
22812;SDS011;11573;51.334;3.244;2023-10-08T01:18:03;34.45;;;7.07;;
22812;SDS011;11573;51.334;3.244;2023-10-08T01:20:32;27.77;;;7.18;;
22812;SDS011;11573;51.334;3.244;2023-10-08T01:23:18;21.58;;;6.55;;
22812;SDS011;11573;51.334;3.244;2023-10-08T01:25:53;22.35;;;5.82;;
22812;SDS011;11573;51.334;3.244;2023-10-08T01:28:40;23.13;;;6.90;;
22812;SDS011;11573;51.334;3.244;2023-10-08T01:31:09;27.25;;;7.18;;
22812;SDS011;11573;51.334;3.244;2023-10-08T01:33:39;29.80;;;7.22;;
22812;SDS011;11573;51.334;3.244;2023-10-08T01:36:16;28.42;;;6.60;;
22812;SDS011;11573;51.334;3.244;2023-10-08T01:38:43;30.65;;;7.38;;
22812;SDS011;11573;51.334;3.244;2023-10-08T01:41:15;25.00;;;5.45;;
22812;SDS011;11573;51.334;3.244;2023-10-08T01:43:46;21.00;;;6.63;;
22812;SDS011;11573;51.334;3.244;2023-10-08T01:46:14;26.27;;;6.80;;
22812;SDS011;11573;51.334;3.244;2023-10-08T01:48:42;22.58;;;6.50;;
22812;SDS011;11573;51.334;3.244;2023-10-08T01:51:11;21.45;;;6.10;;
22812;SDS011;11573;51.334;3.244;2023-10-08T01:53:54;23.77;;;6.68;;
22812;SDS011;11573;51.334;3.244;2023-10-08T01:56:25;17.02;;;6.40;;
22812;SDS011;11573;51.334;3.244;2023-10-08T01:58:52;24.85;;;6.15;;
22812;SDS011;11573;51.334;3.244;2023-10-08T02:01:19;26.35;;;6.85;;
22812;SDS011;11573;51.334;3.244;2023-10-08T02:03:47;25.00;;;6.60;;
22812;SDS011;11573;51.334;3.244;2023-10-08T02:06:15;22.45;;;6.85;;
22812;SDS011;11573;51.334;3.244;2023-10-08T02:08:42;24.42;;;6.78;;
22812;SDS011;11573;51.334;3.244;2023-10-08T02:11:09;21.88;;;6.63;;
22812;SDS011;11573;51.334;3.244;2023-10-08T02:13:37;22.45;;;7.13;;
22812;SDS011;11573;51.334;3.244;2023-10-08T02:16:04;27.15;;;7.35;;
22812;SDS011;11573;51.334;3.244;2023-10-08T02:18:31;21.58;;;6.05;;
22812;SDS011;11573;51.334;3.244;2023-10-08T02:20:59;32.35;;;6.70;;
22812;SDS011;11573;51.334;3.244;2023-10-08T02:23:26;26.05;;;7.05;;
22812;SDS011;11573;51.334;3.244;2023-10-08T02:25:54;30.70;;;7.38;;
22812;SDS011;11573;51.334;3.244;2023-10-08T02:28:21;25.23;;;6.55;;
22812;SDS011;11573;51.334;3.244;2023-10-08T02:30:50;24.65;;;6.75;;
22812;SDS011;11573;51.334;3.244;2023-10-08T02:33:17;27.17;;;7.07;;
22812;SDS011;11573;51.334;3.244;2023-10-08T02:35:46;30.73;;;7.78;;
22812;SDS011;11573;51.334;3.244;2023-10-08T02:38:16;28.02;;;7.38;;
22812;SDS011;11573;51.334;3.244;2023-10-08T02:40:45;25.88;;;6.78;;
22812;SDS011;11573;51.334;3.244;2023-10-08T02:43:14;26.10;;;6.50;;
22812;SDS011;11573;51.334;3.244;2023-10-08T02:45:43;23.65;;;7.28;;
22812;SDS011;11573;51.334;3.244;2023-10-08T02:48:16;26.58;;;7.53;;
22812;SDS011;11573;51.334;3.244;2023-10-08T02:50:44;29.50;;;7.40;;
22812;SDS011;11573;51.334;3.244;2023-10-08T02:53:14;28.15;;;6.72;;
22812;SDS011;11573;51.334;3.244;2023-10-08T02:58:17;36.80;;;6.97;;
22812;SDS011;11573;51.334;3.244;2023-10-08T03:00:47;25.98;;;7.75;;
22812;SDS011;11573;51.334;3.244;2023-10-08T03:03:16;29.08;;;8.57;;
22812;SDS011;11573;51.334;3.244;2023-10-08T03:05:46;31.63;;;7.53;;
22812;SDS011;11573;51.334;3.244;2023-10-08T03:08:15;25.05;;;7.68;;
22812;SDS011;11573;51.334;3.244;2023-10-08T03:10:50;28.48;;;8.63;;
22812;SDS011;11573;51.334;3.244;2023-10-08T03:13:29;20.63;;;7.75;;
22812;SDS011;11573;51.334;3.244;2023-10-08T03:15:56;22.52;;;7.30;;
22812;SDS011;11573;51.334;3.244;2023-10-08T03:18:36;18.92;;;8.32;;
22812;SDS011;11573;51.334;3.244;2023-10-08T03:21:04;29.63;;;8.55;;
22812;SDS011;11573;51.334;3.244;2023-10-08T03:23:32;23.80;;;8.02;;
22812;SDS011;11573;51.334;3.244;2023-10-08T03:26:03;32.53;;;8.60;;
22812;SDS011;11573;51.334;3.244;2023-10-08T03:29:00;28.33;;;7.97;;
22812;SDS011;11573;51.334;3.244;2023-10-08T03:31:32;25.83;;;7.47;;
22812;SDS011;11573;51.334;3.244;2023-10-08T03:34:17;25.47;;;8.60;;
22812;SDS011;11573;51.334;3.244;2023-10-08T03:36:47;21.63;;;7.43;;
22812;SDS011;11573;51.334;3.244;2023-10-08T03:39:17;27.95;;;7.90;;
22812;SDS011;11573;51.334;3.244;2023-10-08T03:41:48;19.27;;;7.97;;
22812;SDS011;11573;51.334;3.244;2023-10-08T03:44:26;25.52;;;8.35;;
22812;SDS011;11573;51.334;3.244;2023-10-08T03:46:56;27.33;;;8.40;;
22812;SDS011;11573;51.334;3.244;2023-10-08T03:49:23;27.63;;;9.70;;
22812;SDS011;11573;51.334;3.244;2023-10-08T03:51:50;24.88;;;8.50;;
22812;SDS011;11573;51.334;3.244;2023-10-08T03:54:19;28.77;;;9.63;;
22812;SDS011;11573;51.334;3.244;2023-10-08T03:56:56;34.92;;;10.57;;
22812;SDS011;11573;51.334;3.244;2023-10-08T03:59:24;23.42;;;9.70;;
22812;SDS011;11573;51.334;3.244;2023-10-08T04:01:58;32.92;;;10.35;;
22812;SDS011;11573;51.334;3.244;2023-10-08T04:04:42;29.67;;;10.38;;
22812;SDS011;11573;51.334;3.244;2023-10-08T04:07:16;29.55;;;10.55;;
22812;SDS011;11573;51.334;3.244;2023-10-08T04:10:05;25.70;;;9.70;;
22812;SDS011;11573;51.334;3.244;2023-10-08T04:12:38;24.67;;;9.75;;
22812;SDS011;11573;51.334;3.244;2023-10-08T04:15:11;31.50;;;10.55;;
22812;SDS011;11573;51.334;3.244;2023-10-08T04:17:43;29.45;;;9.68;;
22812;SDS011;11573;51.334;3.244;2023-10-08T04:20:11;34.20;;;10.27;;
22812;SDS011;11573;51.334;3.244;2023-10-08T04:23:06;30.55;;;9.73;;
22812;SDS011;11573;51.334;3.244;2023-10-08T04:25:47;32.58;;;10.02;;
22812;SDS011;11573;51.334;3.244;2023-10-08T04:28:21;29.50;;;11.30;;
22812;SDS011;11573;51.334;3.244;2023-10-08T04:30:48;34.83;;;11.18;;
22812;SDS011;11573;51.334;3.244;2023-10-08T04:33:17;30.42;;;12.10;;
22812;SDS011;11573;51.334;3.244;2023-10-08T04:35:46;28.92;;;9.80;;
22812;SDS011;11573;51.334;3.244;2023-10-08T04:38:23;33.67;;;10.77;;
22812;SDS011;11573;51.334;3.244;2023-10-08T04:40:52;34.33;;;10.48;;
22812;SDS011;11573;51.334;3.244;2023-10-08T04:43:20;35.80;;;11.55;;
22812;SDS011;11573;51.334;3.244;2023-10-08T04:45:52;30.15;;;10.65;;
22812;SDS011;11573;51.334;3.244;2023-10-08T04:48:20;35.88;;;12.80;;
22812;SDS011;11573;51.334;3.244;2023-10-08T04:50:47;35.70;;;12.70;;
22812;SDS011;11573;51.334;3.244;2023-10-08T04:53:25;40.55;;;13.82;;
22812;SDS011;11573;51.334;3.244;2023-10-08T04:56:02;25.95;;;11.27;;
22812;SDS011;11573;51.334;3.244;2023-10-08T04:58:40;42.65;;;13.35;;
22812;SDS011;11573;51.334;3.244;2023-10-08T05:01:07;38.13;;;14.32;;
22812;SDS011;11573;51.334;3.244;2023-10-08T05:03:45;32.92;;;14.02;;
22812;SDS011;11573;51.334;3.244;2023-10-08T05:06:26;33.65;;;14.18;;
22812;SDS011;11573;51.334;3.244;2023-10-08T05:09:07;37.13;;;14.80;;
22812;SDS011;11573;51.334;3.244;2023-10-08T05:11:39;37.23;;;16.30;;
22812;SDS011;11573;51.334;3.244;2023-10-08T05:14:23;36.78;;;16.05;;
22812;SDS011;11573;51.334;3.244;2023-10-08T05:17:01;32.33;;;15.05;;
22812;SDS011;11573;51.334;3.244;2023-10-08T05:19:36;44.15;;;16.42;;
22812;SDS011;11573;51.334;3.244;2023-10-08T05:22:07;36.22;;;15.68;;
22812;SDS011;11573;51.334;3.244;2023-10-08T05:24:45;41.42;;;16.75;;
22812;SDS011;11573;51.334;3.244;2023-10-08T05:27:39;37.35;;;18.50;;
22812;SDS011;11573;51.334;3.244;2023-10-08T05:30:19;39.38;;;18.98;;
22812;SDS011;11573;51.334;3.244;2023-10-08T05:33:07;36.78;;;17.85;;
22812;SDS011;11573;51.334;3.244;2023-10-08T05:35:52;37.63;;;16.48;;
22812;SDS011;11573;51.334;3.244;2023-10-08T05:38:23;33.92;;;17.40;;
22812;SDS011;11573;51.334;3.244;2023-10-08T05:40:56;35.13;;;16.90;;
22812;SDS011;11573;51.334;3.244;2023-10-08T05:43:27;36.65;;;15.77;;
22812;SDS011;11573;51.334;3.244;2023-10-08T05:46:04;32.72;;;16.30;;
22812;SDS011;11573;51.334;3.244;2023-10-08T05:48:54;37.65;;;15.55;;
22812;SDS011;11573;51.334;3.244;2023-10-08T05:51:28;37.63;;;15.88;;
22812;SDS011;11573;51.334;3.244;2023-10-08T05:54:23;34.30;;;16.23;;
22812;SDS011;11573;51.334;3.244;2023-10-08T05:57:06;32.67;;;15.23;;
22812;SDS011;11573;51.334;3.244;2023-10-08T05:59:38;30.70;;;14.27;;
22812;SDS011;11573;51.334;3.244;2023-10-08T06:02:29;29.80;;;14.43;;
22812;SDS011;11573;51.334;3.244;2023-10-08T06:05:01;34.22;;;15.07;;
22812;SDS011;11573;51.334;3.244;2023-10-08T06:07:41;34.20;;;15.18;;
22812;SDS011;11573;51.334;3.244;2023-10-08T06:10:26;26.35;;;13.75;;
22812;SDS011;11573;51.334;3.244;2023-10-08T06:13:13;34.17;;;15.15;;
22812;SDS011;11573;51.334;3.244;2023-10-08T06:15:46;34.90;;;16.50;;
22812;SDS011;11573;51.334;3.244;2023-10-08T06:18:18;29.52;;;15.25;;
22812;SDS011;11573;51.334;3.244;2023-10-08T06:20:46;32.67;;;15.98;;
22812;SDS011;11573;51.334;3.244;2023-10-08T06:23:15;28.73;;;16.13;;
22812;SDS011;11573;51.334;3.244;2023-10-08T06:25:46;34.92;;;15.25;;
22812;SDS011;11573;51.334;3.244;2023-10-08T06:28:20;39.40;;;15.75;;
22812;SDS011;11573;51.334;3.244;2023-10-08T06:30:48;40.65;;;16.67;;
22812;SDS011;11573;51.334;3.244;2023-10-08T06:33:16;32.05;;;15.43;;
22812;SDS011;11573;51.334;3.244;2023-10-08T06:35:43;29.33;;;15.38;;
22812;SDS011;11573;51.334;3.244;2023-10-08T06:38:28;34.63;;;16.33;;
22812;SDS011;11573;51.334;3.244;2023-10-08T06:40:59;29.48;;;15.73;;
22812;SDS011;11573;51.334;3.244;2023-10-08T06:43:33;27.83;;;14.35;;
22812;SDS011;11573;51.334;3.244;2023-10-08T06:46:03;32.22;;;15.18;;
22812;SDS011;11573;51.334;3.244;2023-10-08T06:48:33;31.08;;;15.27;;
22812;SDS011;11573;51.334;3.244;2023-10-08T06:51:01;28.50;;;14.25;;
22812;SDS011;11573;51.334;3.244;2023-10-08T06:53:39;34.90;;;16.08;;
22812;SDS011;11573;51.334;3.244;2023-10-08T06:56:11;38.95;;;14.77;;
22812;SDS011;11573;51.334;3.244;2023-10-08T06:58:42;27.23;;;13.93;;
22812;SDS011;11573;51.334;3.244;2023-10-08T07:01:19;22.00;;;13.48;;
22812;SDS011;11573;51.334;3.244;2023-10-08T07:03:51;30.35;;;15.18;;
22812;SDS011;11573;51.334;3.244;2023-10-08T07:06:23;27.52;;;15.15;;
22812;SDS011;11573;51.334;3.244;2023-10-08T07:08:58;27.73;;;14.82;;
22812;SDS011;11573;51.334;3.244;2023-10-08T07:11:26;23.45;;;12.98;;
22812;SDS011;11573;51.334;3.244;2023-10-08T07:13:53;31.20;;;14.18;;
22812;SDS011;11573;51.334;3.244;2023-10-08T07:16:21;21.20;;;12.50;;
22812;SDS011;11573;51.334;3.244;2023-10-08T07:18:49;28.48;;;13.25;;
22812;SDS011;11573;51.334;3.244;2023-10-08T07:21:18;27.05;;;13.13;;
22812;SDS011;11573;51.334;3.244;2023-10-08T07:23:50;27.88;;;14.25;;
22812;SDS011;11573;51.334;3.244;2023-10-08T07:26:24;22.75;;;13.75;;
22812;SDS011;11573;51.334;3.244;2023-10-08T07:28:52;28.30;;;13.68;;
22812;SDS011;11573;51.334;3.244;2023-10-08T07:31:20;25.63;;;12.90;;
22812;SDS011;11573;51.334;3.244;2023-10-08T07:33:49;23.58;;;12.25;;
22812;SDS011;11573;51.334;3.244;2023-10-08T07:36:25;30.40;;;13.88;;
22812;SDS011;11573;51.334;3.244;2023-10-08T07:38:57;29.33;;;13.68;;
22812;SDS011;11573;51.334;3.244;2023-10-08T07:41:24;29.40;;;14.18;;
22812;SDS011;11573;51.334;3.244;2023-10-08T07:43:51;30.02;;;12.43;;
22812;SDS011;11573;51.334;3.244;2023-10-08T07:46:25;27.33;;;12.80;;
22812;SDS011;11573;51.334;3.244;2023-10-08T07:48:55;21.52;;;12.65;;
22812;SDS011;11573;51.334;3.244;2023-10-08T07:51:24;30.08;;;13.20;;
22812;SDS011;11573;51.334;3.244;2023-10-08T07:53:51;25.67;;;11.82;;
22812;SDS011;11573;51.334;3.244;2023-10-08T07:56:23;23.83;;;12.48;;
22812;SDS011;11573;51.334;3.244;2023-10-08T07:58:50;26.98;;;11.73;;
22812;SDS011;11573;51.334;3.244;2023-10-08T08:01:18;27.63;;;12.93;;
22812;SDS011;11573;51.334;3.244;2023-10-08T08:03:47;22.35;;;12.07;;
22812;SDS011;11573;51.334;3.244;2023-10-08T08:06:15;29.33;;;11.98;;
22812;SDS011;11573;51.334;3.244;2023-10-08T08:08:43;27.35;;;12.57;;
22812;SDS011;11573;51.334;3.244;2023-10-08T08:11:10;24.52;;;12.32;;
22812;SDS011;11573;51.334;3.244;2023-10-08T08:13:44;22.17;;;11.93;;
22812;SDS011;11573;51.334;3.244;2023-10-08T08:16:13;26.35;;;11.75;;
22812;SDS011;11573;51.334;3.244;2023-10-08T08:18:49;24.65;;;13.02;;
22812;SDS011;11573;51.334;3.244;2023-10-08T08:21:25;21.70;;;12.65;;
22812;SDS011;11573;51.334;3.244;2023-10-08T08:23:53;29.88;;;13.80;;
22812;SDS011;11573;51.334;3.244;2023-10-08T08:26:31;29.05;;;13.38;;
22812;SDS011;11573;51.334;3.244;2023-10-08T08:29:06;30.38;;;13.05;;
22812;SDS011;11573;51.334;3.244;2023-10-08T08:31:35;23.27;;;12.93;;
22812;SDS011;11573;51.334;3.244;2023-10-08T08:34:02;29.60;;;13.63;;
22812;SDS011;11573;51.334;3.244;2023-10-08T08:36:35;25.60;;;12.65;;
22812;SDS011;11573;51.334;3.244;2023-10-08T08:39:05;23.88;;;12.75;;
22812;SDS011;11573;51.334;3.244;2023-10-08T08:41:38;24.65;;;13.50;;
22812;SDS011;11573;51.334;3.244;2023-10-08T08:44:05;24.15;;;12.63;;
22812;SDS011;11573;51.334;3.244;2023-10-08T08:46:33;28.02;;;12.73;;
22812;SDS011;11573;51.334;3.244;2023-10-08T08:49:05;25.42;;;13.00;;
22812;SDS011;11573;51.334;3.244;2023-10-08T08:51:34;22.75;;;11.98;;
22812;SDS011;11573;51.334;3.244;2023-10-08T08:54:02;23.95;;;11.05;;
22812;SDS011;11573;51.334;3.244;2023-10-08T08:56:33;22.40;;;11.88;;
22812;SDS011;11573;51.334;3.244;2023-10-08T08:59:04;25.70;;;11.98;;
22812;SDS011;11573;51.334;3.244;2023-10-08T09:01:31;29.83;;;11.65;;
22812;SDS011;11573;51.334;3.244;2023-10-08T09:04:00;23.92;;;11.98;;
22812;SDS011;11573;51.334;3.244;2023-10-08T09:06:28;24.00;;;11.45;;
22812;SDS011;11573;51.334;3.244;2023-10-08T09:08:55;21.25;;;11.75;;
22812;SDS011;11573;51.334;3.244;2023-10-08T09:11:39;22.85;;;12.35;;
22812;SDS011;11573;51.334;3.244;2023-10-08T09:14:11;24.98;;;12.63;;
22812;SDS011;11573;51.334;3.244;2023-10-08T09:16:39;24.35;;;11.85;;
22812;SDS011;11573;51.334;3.244;2023-10-08T09:19:06;23.90;;;11.32;;
22812;SDS011;11573;51.334;3.244;2023-10-08T09:21:38;21.10;;;11.45;;
22812;SDS011;11573;51.334;3.244;2023-10-08T09:24:08;19.27;;;10.43;;
22812;SDS011;11573;51.334;3.244;2023-10-08T09:26:38;19.40;;;10.20;;
22812;SDS011;11573;51.334;3.244;2023-10-08T09:29:06;22.38;;;10.23;;
22812;SDS011;11573;51.334;3.244;2023-10-08T09:31:35;19.70;;;10.68;;
22812;SDS011;11573;51.334;3.244;2023-10-08T09:34:03;19.35;;;10.55;;
22812;SDS011;11573;51.334;3.244;2023-10-08T09:36:30;22.60;;;11.00;;
22812;SDS011;11573;51.334;3.244;2023-10-08T09:39:02;23.90;;;10.50;;
22812;SDS011;11573;51.334;3.244;2023-10-08T09:41:33;20.20;;;9.82;;
22812;SDS011;11573;51.334;3.244;2023-10-08T09:44:01;21.83;;;9.95;;
22812;SDS011;11573;51.334;3.244;2023-10-08T09:46:31;18.27;;;9.50;;
22812;SDS011;11573;51.334;3.244;2023-10-08T09:49:01;18.88;;;9.35;;
22812;SDS011;11573;51.334;3.244;2023-10-08T09:51:33;21.77;;;10.27;;
22812;SDS011;11573;51.334;3.244;2023-10-08T09:56:40;20.45;;;10.43;;
22812;SDS011;11573;51.334;3.244;2023-10-08T09:59:09;23.10;;;10.40;;
22812;SDS011;11573;51.334;3.244;2023-10-08T10:01:38;21.55;;;9.52;;
22812;SDS011;11573;51.334;3.244;2023-10-08T10:04:11;24.42;;;10.45;;
22812;SDS011;11573;51.334;3.244;2023-10-08T10:06:41;25.52;;;10.02;;
22812;SDS011;11573;51.334;3.244;2023-10-08T10:09:12;20.52;;;9.63;;
22812;SDS011;11573;51.334;3.244;2023-10-08T10:11:48;23.55;;;10.10;;
22812;SDS011;11573;51.334;3.244;2023-10-08T10:14:16;18.27;;;10.02;;
22812;SDS011;11573;51.334;3.244;2023-10-08T10:17:08;19.30;;;9.65;;
22812;SDS011;11573;51.334;3.244;2023-10-08T10:20:10;22.23;;;9.93;;
22812;SDS011;11573;51.334;3.244;2023-10-08T10:22:41;20.05;;;9.10;;
22812;SDS011;11573;51.334;3.244;2023-10-08T10:25:10;22.85;;;10.20;;
22812;SDS011;11573;51.334;3.244;2023-10-08T10:30:17;18.70;;;10.00;;
22812;SDS011;11573;51.334;3.244;2023-10-08T10:32:52;20.75;;;9.68;;
22812;SDS011;11573;51.334;3.244;2023-10-08T10:35:20;16.63;;;8.35;;
22812;SDS011;11573;51.334;3.244;2023-10-08T10:37:47;18.27;;;9.38;;
22812;SDS011;11573;51.334;3.244;2023-10-08T10:40:22;20.83;;;9.20;;
22812;SDS011;11573;51.334;3.244;2023-10-08T10:42:56;19.50;;;8.77;;
22812;SDS011;11573;51.334;3.244;2023-10-08T10:45:23;22.42;;;9.18;;
22812;SDS011;11573;51.334;3.244;2023-10-08T10:48:09;20.23;;;9.60;;
22812;SDS011;11573;51.334;3.244;2023-10-08T10:50:46;21.70;;;10.15;;
22812;SDS011;11573;51.334;3.244;2023-10-08T10:53:34;17.20;;;9.27;;
22812;SDS011;11573;51.334;3.244;2023-10-08T10:56:11;20.23;;;8.95;;
22812;SDS011;11573;51.334;3.244;2023-10-08T10:58:46;25.50;;;9.65;;
22812;SDS011;11573;51.334;3.244;2023-10-08T11:01:26;15.98;;;8.95;;
22812;SDS011;11573;51.334;3.244;2023-10-08T11:03:56;17.98;;;8.57;;
22812;SDS011;11573;51.334;3.244;2023-10-08T11:06:26;18.35;;;8.77;;
22812;SDS011;11573;51.334;3.244;2023-10-08T11:08:54;22.70;;;9.93;;
22812;SDS011;11573;51.334;3.244;2023-10-08T11:11:26;13.50;;;8.18;;
22812;SDS011;11573;51.334;3.244;2023-10-08T11:13:57;19.33;;;8.70;;
22812;SDS011;11573;51.334;3.244;2023-10-08T11:16:27;18.20;;;8.40;;
22812;SDS011;11573;51.334;3.244;2023-10-08T11:18:58;16.00;;;8.55;;
22812;SDS011;11573;51.334;3.244;2023-10-08T11:21:28;18.48;;;9.18;;
22812;SDS011;11573;51.334;3.244;2023-10-08T11:24:00;16.70;;;9.95;;
22812;SDS011;11573;51.334;3.244;2023-10-08T11:26:35;16.52;;;8.55;;
22812;SDS011;11573;51.334;3.244;2023-10-08T11:29:06;19.13;;;9.63;;
22812;SDS011;11573;51.334;3.244;2023-10-08T11:31:41;21.17;;;9.43;;
22812;SDS011;11573;51.334;3.244;2023-10-08T11:34:10;18.63;;;9.73;;
22812;SDS011;11573;51.334;3.244;2023-10-08T11:36:40;20.95;;;10.35;;
22812;SDS011;11573;51.334;3.244;2023-10-08T11:39:20;18.75;;;9.95;;
22812;SDS011;11573;51.334;3.244;2023-10-08T11:44:23;15.73;;;8.98;;
22812;SDS011;11573;51.334;3.244;2023-10-08T11:46:56;17.60;;;10.18;;
22812;SDS011;11573;51.334;3.244;2023-10-08T11:49:31;16.42;;;9.27;;
22812;SDS011;11573;51.334;3.244;2023-10-08T11:52:03;21.48;;;9.77;;
22812;SDS011;11573;51.334;3.244;2023-10-08T11:54:30;19.98;;;9.77;;
22812;SDS011;11573;51.334;3.244;2023-10-08T11:56:59;19.27;;;11.15;;
22812;SDS011;11573;51.334;3.244;2023-10-08T11:59:29;22.90;;;11.15;;
22812;SDS011;11573;51.334;3.244;2023-10-08T12:01:58;16.15;;;10.93;;
22812;SDS011;11573;51.334;3.244;2023-10-08T12:04:26;20.02;;;10.77;;
22812;SDS011;11573;51.334;3.244;2023-10-08T12:06:57;18.52;;;9.80;;
22812;SDS011;11573;51.334;3.244;2023-10-08T12:09:29;15.05;;;9.88;;
22812;SDS011;11573;51.334;3.244;2023-10-08T12:11:56;20.85;;;10.48;;
22812;SDS011;11573;51.334;3.244;2023-10-08T12:14:24;16.20;;;9.43;;
22812;SDS011;11573;51.334;3.244;2023-10-08T12:16:57;21.00;;;10.27;;
22812;SDS011;11573;51.334;3.244;2023-10-08T12:19:26;23.80;;;11.00;;
22812;SDS011;11573;51.334;3.244;2023-10-08T12:22:00;19.55;;;10.02;;
22812;SDS011;11573;51.334;3.244;2023-10-08T12:24:29;19.40;;;10.48;;
22812;SDS011;11573;51.334;3.244;2023-10-08T12:26:56;19.60;;;9.13;;
22812;SDS011;11573;51.334;3.244;2023-10-08T12:29:25;17.10;;;9.43;;
22812;SDS011;11573;51.334;3.244;2023-10-08T12:31:53;18.48;;;9.18;;
22812;SDS011;11573;51.334;3.244;2023-10-08T12:34:20;19.83;;;9.13;;
22812;SDS011;11573;51.334;3.244;2023-10-08T12:36:49;19.65;;;9.20;;
22812;SDS011;11573;51.334;3.244;2023-10-08T12:39:17;18.42;;;8.82;;
22812;SDS011;11573;51.334;3.244;2023-10-08T12:41:51;18.65;;;7.18;;
22812;SDS011;11573;51.334;3.244;2023-10-08T12:44:20;19.58;;;7.80;;
22812;SDS011;11573;51.334;3.244;2023-10-08T12:46:49;16.30;;;7.30;;
22812;SDS011;11573;51.334;3.244;2023-10-08T12:49:17;15.48;;;6.68;;
22812;SDS011;11573;51.334;3.244;2023-10-08T12:51:47;17.60;;;7.28;;
22812;SDS011;11573;51.334;3.244;2023-10-08T12:54:14;17.63;;;7.03;;
22812;SDS011;11573;51.334;3.244;2023-10-08T12:56:48;15.30;;;7.30;;
22812;SDS011;11573;51.334;3.244;2023-10-08T12:59:16;14.60;;;6.68;;
22812;SDS011;11573;51.334;3.244;2023-10-08T13:01:51;17.40;;;6.35;;
22812;SDS011;11573;51.334;3.244;2023-10-08T13:04:21;13.02;;;6.22;;
22812;SDS011;11573;51.334;3.244;2023-10-08T13:06:54;15.45;;;6.60;;
22812;SDS011;11573;51.334;3.244;2023-10-08T13:09:28;16.25;;;5.68;;
22812;SDS011;11573;51.334;3.244;2023-10-08T13:11:58;16.70;;;6.38;;
22812;SDS011;11573;51.334;3.244;2023-10-08T13:14:26;17.25;;;6.38;;
22812;SDS011;11573;51.334;3.244;2023-10-08T13:16:53;13.43;;;5.90;;
22812;SDS011;11573;51.334;3.244;2023-10-08T13:19:20;15.57;;;6.15;;
22812;SDS011;11573;51.334;3.244;2023-10-08T13:21:50;19.38;;;6.65;;
22812;SDS011;11573;51.334;3.244;2023-10-08T13:24:20;19.85;;;6.22;;
22812;SDS011;11573;51.334;3.244;2023-10-08T13:26:50;15.13;;;6.38;;
22812;SDS011;11573;51.334;3.244;2023-10-08T13:29:18;12.50;;;5.28;;
22812;SDS011;11573;51.334;3.244;2023-10-08T13:31:45;13.85;;;6.38;;
22812;SDS011;11573;51.334;3.244;2023-10-08T13:34:13;15.07;;;5.68;;
22812;SDS011;11573;51.334;3.244;2023-10-08T13:36:43;13.20;;;6.43;;
22812;SDS011;11573;51.334;3.244;2023-10-08T13:39:14;14.55;;;6.13;;
22812;SDS011;11573;51.334;3.244;2023-10-08T13:41:45;13.98;;;6.00;;
22812;SDS011;11573;51.334;3.244;2023-10-08T13:44:16;12.98;;;5.85;;
22812;SDS011;11573;51.334;3.244;2023-10-08T13:46:44;13.15;;;6.65;;
22812;SDS011;11573;51.334;3.244;2023-10-08T13:49:17;16.75;;;6.53;;
22812;SDS011;11573;51.334;3.244;2023-10-08T13:51:46;17.35;;;6.55;;
22812;SDS011;11573;51.334;3.244;2023-10-08T13:54:16;12.73;;;6.38;;
22812;SDS011;11573;51.334;3.244;2023-10-08T13:56:44;16.35;;;6.38;;
22812;SDS011;11573;51.334;3.244;2023-10-08T13:59:15;11.85;;;6.28;;
22812;SDS011;11573;51.334;3.244;2023-10-08T14:01:43;15.88;;;6.70;;
22812;SDS011;11573;51.334;3.244;2023-10-08T14:04:18;18.92;;;6.47;;
22812;SDS011;11573;51.334;3.244;2023-10-08T14:06:57;14.85;;;6.32;;
22812;SDS011;11573;51.334;3.244;2023-10-08T14:09:24;13.45;;;5.60;;
22812;SDS011;11573;51.334;3.244;2023-10-08T14:11:59;18.35;;;5.90;;
22812;SDS011;11573;51.334;3.244;2023-10-08T14:14:27;14.23;;;6.35;;
22812;SDS011;11573;51.334;3.244;2023-10-08T14:17:00;14.00;;;5.75;;
22812;SDS011;11573;51.334;3.244;2023-10-08T14:19:36;11.50;;;5.93;;
22812;SDS011;11573;51.334;3.244;2023-10-08T14:22:13;12.20;;;5.45;;
22812;SDS011;11573;51.334;3.244;2023-10-08T14:24:42;14.75;;;5.80;;
22812;SDS011;11573;51.334;3.244;2023-10-08T14:27:12;16.45;;;6.68;;
22812;SDS011;11573;51.334;3.244;2023-10-08T14:29:42;16.48;;;6.13;;
22812;SDS011;11573;51.334;3.244;2023-10-08T14:32:18;13.63;;;5.95;;
22812;SDS011;11573;51.334;3.244;2023-10-08T14:34:46;19.25;;;6.28;;
22812;SDS011;11573;51.334;3.244;2023-10-08T14:37:14;13.07;;;5.38;;
22812;SDS011;11573;51.334;3.244;2023-10-08T14:40:00;12.50;;;5.60;;
22812;SDS011;11573;51.334;3.244;2023-10-08T14:42:47;13.60;;;5.80;;
22812;SDS011;11573;51.334;3.244;2023-10-08T14:45:29;17.17;;;6.60;;
22812;SDS011;11573;51.334;3.244;2023-10-08T14:47:58;9.68;;;4.53;;
22812;SDS011;11573;51.334;3.244;2023-10-08T14:50:26;12.98;;;5.00;;
22812;SDS011;11573;51.334;3.244;2023-10-08T14:52:54;10.18;;;5.13;;
22812;SDS011;11573;51.334;3.244;2023-10-08T14:55:22;13.00;;;5.97;;
22812;SDS011;11573;51.334;3.244;2023-10-08T14:57:50;12.07;;;5.32;;
22812;SDS011;11573;51.334;3.244;2023-10-08T15:00:19;10.05;;;5.57;;
22812;SDS011;11573;51.334;3.244;2023-10-08T15:02:53;13.20;;;5.30;;
22812;SDS011;11573;51.334;3.244;2023-10-08T15:05:22;13.55;;;5.03;;
22812;SDS011;11573;51.334;3.244;2023-10-08T15:07:49;11.75;;;4.82;;
22812;SDS011;11573;51.334;3.244;2023-10-08T15:10:20;14.35;;;5.28;;